createdAt,value
2019-01-21T00:01:53.858Z,-2.10
2019-01-21T00:04:20.006Z,-2.20
2019-01-21T00:06:46.054Z,-2.20
2019-01-21T00:09:12.392Z,-2.20
2019-01-21T00:11:38.559Z,-2.20
2019-01-21T00:14:04.732Z,-2.20
2019-01-21T00:16:30.783Z,-2.20
2019-01-21T00:18:56.825Z,-2.30
2019-01-21T00:21:23.247Z,-2.30
2019-01-21T00:23:49.384Z,-2.30
2019-01-21T00:26:15.444Z,-2.30
2019-01-21T00:28:41.797Z,-2.30
2019-01-21T00:31:07.832Z,-2.30
2019-01-21T00:33:33.888Z,-2.30
2019-01-21T00:35:59.952Z,-2.30
2019-01-21T00:38:26.400Z,-2.30
2019-01-21T00:40:52.742Z,-2.30
2019-01-21T00:43:18.803Z,-2.40
2019-01-21T00:45:44.852Z,-2.40
2019-01-21T00:48:10.937Z,-2.30
2019-01-21T00:50:37.061Z,-2.40
2019-01-21T00:53:03.096Z,-2.40
2019-01-21T00:55:29.480Z,-2.40
2019-01-21T00:57:55.523Z,-2.40
2019-01-21T01:00:23.409Z,-2.50
2019-01-21T01:02:49.647Z,-2.50
2019-01-21T01:05:16.195Z,-2.40
2019-01-21T01:07:42.324Z,-2.60
2019-01-21T01:10:10.516Z,-2.50
2019-01-21T01:12:36.569Z,-2.50
2019-01-21T01:15:05.035Z,-2.60
2019-01-21T01:17:37.150Z,-2.60
2019-01-21T01:20:00.107Z,-2.60
2019-01-21T01:22:26.212Z,-2.60
2019-01-21T01:24:52.261Z,-2.70
2019-01-21T01:27:18.301Z,-2.60
2019-01-21T01:29:44.367Z,-2.70
2019-01-21T01:32:10.421Z,-2.70
2019-01-21T01:34:36.480Z,-2.70
2019-01-21T01:37:02.936Z,-2.70
2019-01-21T01:39:29.272Z,-2.80
2019-01-21T01:41:55.311Z,-2.80
2019-01-21T01:44:21.452Z,-2.80
2019-01-21T01:46:47.520Z,-2.80
2019-01-21T01:49:13.595Z,-2.80
2019-01-21T01:51:39.733Z,-2.80
2019-01-21T01:54:05.976Z,-2.80
2019-01-21T01:56:32.343Z,-2.90
2019-01-21T01:58:58.403Z,-2.80
2019-01-21T02:01:24.863Z,-2.80
2019-01-21T02:03:50.904Z,-2.80
2019-01-21T02:06:17.055Z,-2.80
2019-01-21T02:08:43.108Z,-2.80
2019-01-21T02:11:09.161Z,-2.80
2019-01-21T02:13:35.664Z,-2.80
2019-01-21T02:16:01.914Z,-2.80
2019-01-21T02:18:28.065Z,-2.80
2019-01-21T02:20:56.711Z,-2.80
2019-01-21T02:23:26.555Z,-2.80
2019-01-21T02:25:52.696Z,-2.80
2019-01-21T02:28:22.527Z,-2.80
2019-01-21T02:31:21.365Z,-2.80
2019-01-21T02:34:06.176Z,-2.90
2019-01-21T02:37:00.665Z,-2.90
2019-01-21T02:39:33.427Z,-3.00
2019-01-21T02:42:03.307Z,-3.00
2019-01-21T02:44:56.156Z,-3.00
2019-01-21T02:47:32.004Z,-3.10
2019-01-21T02:50:05.162Z,-3.10
2019-01-21T02:52:51.869Z,-3.10
2019-01-21T02:55:31.000Z,-3.20
2019-01-21T02:58:13.015Z,-3.20
2019-01-21T03:00:45.982Z,-3.20
2019-01-21T03:03:39.923Z,-3.30
2019-01-21T03:06:15.796Z,-3.30
2019-01-21T03:08:54.932Z,-3.30
2019-01-21T03:11:42.889Z,-3.30
2019-01-21T03:14:27.800Z,-3.40
2019-01-21T03:17:14.381Z,-3.40
2019-01-21T03:19:53.463Z,-3.40
2019-01-21T03:22:31.752Z,-3.40
2019-01-21T03:25:26.193Z,-3.50
2019-01-21T03:28:07.597Z,-3.50
2019-01-21T03:30:37.444Z,-3.50
2019-01-21T03:33:16.014Z,-3.50
2019-01-21T03:35:49.486Z,-3.60
2019-01-21T03:38:37.628Z,-3.50
2019-01-21T03:41:23.379Z,-3.60
2019-01-21T03:44:14.216Z,-3.60
2019-01-21T03:46:59.164Z,-3.60
2019-01-21T03:49:46.885Z,-3.60
2019-01-21T03:52:41.300Z,-3.70
2019-01-21T03:55:12.829Z,-3.70
2019-01-21T03:57:48.778Z,-3.70
2019-01-21T04:00:24.447Z,-3.70
2019-01-21T04:03:12.107Z,-3.70
2019-01-21T04:05:41.955Z,-3.70
2019-01-21T04:08:28.286Z,-3.70
2019-01-21T04:11:18.977Z,-3.80
2019-01-21T04:14:00.811Z,-3.80
2019-01-21T04:16:39.658Z,-3.70
2019-01-21T04:19:12.512Z,-3.80
2019-01-21T04:21:48.664Z,-3.80
2019-01-21T04:24:21.271Z,-3.80
2019-01-21T04:26:51.459Z,-3.80
2019-01-21T04:29:24.322Z,-3.90
2019-01-21T04:32:15.419Z,-3.90
2019-01-21T04:35:01.906Z,-3.90
2019-01-21T04:37:47.049Z,-3.90
2019-01-21T04:40:16.995Z,-3.90
2019-01-21T04:42:58.914Z,-3.90
2019-01-21T04:45:48.444Z,-3.90
2019-01-21T04:48:21.324Z,-3.90
2019-01-21T04:50:50.029Z,-4.00
2019-01-21T04:53:28.939Z,-4.00
2019-01-21T04:56:10.827Z,-4.00
2019-01-21T04:58:57.255Z,-4.00
2019-01-21T05:01:35.736Z,-4.10
2019-01-21T05:04:25.278Z,-4.10
2019-01-21T05:07:11.885Z,-4.10
2019-01-21T05:09:44.862Z,-4.00
2019-01-21T05:12:32.919Z,-4.10
2019-01-21T05:15:26.939Z,-4.00
2019-01-21T05:18:14.885Z,-4.00
2019-01-21T05:21:01.465Z,-4.00
2019-01-21T05:23:37.285Z,-4.00
2019-01-21T05:26:10.345Z,-4.00
2019-01-21T05:29:01.649Z,-4.00
2019-01-21T05:31:43.752Z,-4.00
2019-01-21T05:34:43.675Z,-4.00
2019-01-21T05:37:22.537Z,-4.00
2019-01-21T05:40:09.005Z,-4.00
2019-01-21T05:42:55.804Z,-4.10
2019-01-21T05:45:25.644Z,-4.10
2019-01-21T05:48:10.151Z,-4.10
2019-01-21T05:50:42.784Z,-4.20
2019-01-21T05:53:12.660Z,-4.20
2019-01-21T05:55:57.049Z,-4.20
2019-01-21T05:58:42.321Z,-4.20
2019-01-21T06:01:36.943Z,-4.20
2019-01-21T06:04:15.770Z,-4.20
2019-01-21T06:07:02.772Z,-4.20
2019-01-21T06:09:38.883Z,-4.30
2019-01-21T06:12:18.279Z,-4.30
2019-01-21T06:14:48.213Z,-4.30
2019-01-21T06:17:21.185Z,-4.30
2019-01-21T06:19:54.076Z,-4.30
2019-01-21T06:22:26.948Z,-4.30
2019-01-21T06:24:57.132Z,-4.30
2019-01-21T06:27:43.999Z,-4.30
2019-01-21T06:30:22.556Z,-4.30
2019-01-21T06:32:55.448Z,-4.40
2019-01-21T06:35:43.679Z,-4.30
2019-01-21T06:38:31.376Z,-4.30
2019-01-21T06:41:10.540Z,-4.40
2019-01-21T06:43:52.696Z,-4.40
2019-01-21T06:46:39.328Z,-4.40
2019-01-21T06:49:25.565Z,-4.40
2019-01-21T06:51:58.437Z,-4.40
2019-01-21T06:54:45.591Z,-4.40
2019-01-21T06:57:20.952Z,-4.40
2019-01-21T07:00:02.635Z,-4.50
2019-01-21T07:02:41.121Z,-4.50
2019-01-21T07:05:28.788Z,-4.50
2019-01-21T07:08:32.608Z,-4.50
2019-01-21T07:11:21.099Z,-4.50
2019-01-21T07:14:09.587Z,-4.50
2019-01-21T07:16:39.695Z,-4.60
2019-01-21T07:19:24.077Z,-4.60
2019-01-21T07:22:18.231Z,-4.60
2019-01-21T07:24:51.008Z,-4.60
2019-01-21T07:27:29.864Z,-4.60
2019-01-21T07:30:33.463Z,-4.60
2019-01-21T07:33:30.591Z,-4.70
2019-01-21T07:36:15.720Z,-4.70
2019-01-21T07:38:45.584Z,-4.70
2019-01-21T07:41:23.908Z,-4.70
2019-01-21T07:44:05.782Z,-4.70
2019-01-21T07:46:51.272Z,-4.70
2019-01-21T07:49:21.380Z,-4.70
2019-01-21T07:52:06.320Z,-4.70
2019-01-21T07:54:42.119Z,-4.70
2019-01-21T07:57:21.735Z,-4.60
2019-01-21T07:59:51.859Z,-4.60
2019-01-21T08:02:40.303Z,-4.60
2019-01-21T08:05:31.907Z,-4.60
2019-01-21T08:08:10.499Z,-4.60
2019-01-21T08:10:49.136Z,-4.50
2019-01-21T08:13:19.017Z,-4.50
2019-01-21T08:15:58.208Z,-4.50
2019-01-21T08:18:45.922Z,-4.40
2019-01-21T08:21:15.771Z,-4.30
2019-01-21T08:23:45.640Z,-4.20
2019-01-21T08:26:21.724Z,-4.10
2019-01-21T08:28:57.680Z,-4.10
2019-01-21T08:31:30.873Z,-4.00
2019-01-21T08:34:19.442Z,-4.00
2019-01-21T08:37:01.995Z,-3.90
2019-01-21T08:39:37.655Z,-3.90
2019-01-21T08:42:16.408Z,-3.80
2019-01-21T08:45:16.606Z,-3.80
2019-01-21T08:47:49.274Z,-3.70
2019-01-21T08:50:25.467Z,-3.70
2019-01-21T08:52:55.335Z,-3.60
2019-01-21T08:55:37.476Z,-3.60
2019-01-21T08:58:13.109Z,-3.50
2019-01-21T09:00:58.479Z,-3.40
2019-01-21T09:03:48.084Z,-3.30
2019-01-21T09:06:20.867Z,-3.30
2019-01-21T09:09:03.966Z,-3.20
2019-01-21T09:11:36.875Z,-3.10
2019-01-21T09:14:18.796Z,-3.00
2019-01-21T09:17:19.429Z,-2.90
2019-01-21T09:20:03.928Z,-2.70
2019-01-21T09:22:33.779Z,-2.60
2019-01-21T09:25:18.771Z,-2.50
2019-01-21T09:27:57.775Z,-2.40
2019-01-21T09:30:33.720Z,-2.30
2019-01-21T09:33:32.696Z,-2.20
2019-01-21T09:36:11.275Z,-2.00
2019-01-21T09:39:10.160Z,-1.90
2019-01-21T09:42:00.067Z,-1.80
2019-01-21T09:44:35.804Z,-1.70
2019-01-21T09:47:01.721Z,-1.50
2019-01-21T09:49:28.111Z,-1.40
2019-01-21T09:51:57.683Z,-1.30
2019-01-21T09:54:24.048Z,-1.10
2019-01-21T09:56:53.193Z,-1.00
2019-01-21T09:59:19.855Z,-0.90
2019-01-21T10:01:47.105Z,-0.70
2019-01-21T10:04:16.950Z,-0.60
2019-01-21T10:06:46.817Z,-0.40
2019-01-21T10:09:16.693Z,-0.30
2019-01-21T10:11:59.005Z,-0.20
2019-01-21T10:14:45.880Z,0.00
2019-01-21T10:17:38.586Z,0.10
2019-01-21T10:20:25.267Z,0.20
2019-01-21T10:22:58.119Z,0.40
2019-01-21T10:25:51.729Z,0.50
2019-01-21T10:28:24.571Z,0.60
2019-01-21T10:31:03.311Z,0.70
2019-01-21T10:33:34.140Z,0.80
2019-01-21T10:36:23.963Z,1.00
2019-01-21T10:38:57.414Z,1.10
2019-01-21T10:41:33.584Z,1.20
2019-01-21T10:44:19.479Z,1.30
2019-01-21T10:47:07.811Z,1.40
2019-01-21T10:49:57.405Z,1.50
2019-01-21T10:52:43.171Z,1.60
2019-01-21T10:55:27.700Z,1.70
2019-01-21T10:58:03.551Z,1.80
2019-01-21T11:00:57.916Z,1.90
2019-01-21T11:03:47.480Z,2.00
2019-01-21T11:06:34.265Z,2.10
2019-01-21T11:09:13.687Z,2.10
2019-01-21T11:12:02.104Z,2.20
2019-01-21T11:14:50.492Z,2.30
2019-01-21T11:17:38.654Z,2.40
2019-01-21T11:20:29.400Z,2.50
2019-01-21T11:22:59.289Z,2.50
2019-01-21T11:25:44.281Z,2.60
2019-01-21T11:28:14.443Z,2.70
2019-01-21T11:30:56.538Z,2.80
2019-01-21T11:33:44.840Z,2.90
2019-01-21T11:36:32.819Z,3.00
2019-01-21T11:39:11.432Z,3.00
2019-01-21T11:41:47.204Z,3.10
2019-01-21T11:44:19.909Z,3.20
2019-01-21T11:46:49.767Z,3.30
2019-01-21T11:49:19.617Z,3.30
2019-01-21T11:51:58.712Z,3.40
2019-01-21T11:54:40.614Z,3.50
2019-01-21T11:57:42.512Z,3.60
2019-01-21T12:00:15.772Z,3.60
2019-01-21T12:02:48.299Z,3.70
2019-01-21T12:05:21.162Z,3.70
2019-01-21T12:08:07.632Z,3.80
2019-01-21T12:10:52.755Z,3.90
2019-01-21T12:13:25.649Z,4.00
2019-01-21T12:16:18.387Z,4.00
2019-01-21T12:18:51.315Z,4.10
2019-01-21T12:21:24.206Z,4.20
2019-01-21T12:24:03.231Z,4.20
2019-01-21T12:27:00.032Z,4.20
2019-01-21T12:29:35.835Z,4.30
2019-01-21T12:32:15.267Z,4.40
2019-01-21T12:35:09.891Z,4.40
2019-01-21T12:37:54.746Z,4.40
2019-01-21T12:40:24.610Z,4.50
2019-01-21T12:43:03.547Z,4.50
2019-01-21T12:45:33.402Z,4.60
2019-01-21T12:48:09.056Z,4.60
2019-01-21T12:51:06.407Z,4.70
2019-01-21T12:53:45.139Z,4.70
2019-01-21T12:56:20.844Z,4.70
2019-01-21T12:59:05.919Z,4.70
2019-01-21T13:01:38.819Z,4.80
2019-01-21T13:04:24.055Z,4.80
2019-01-21T13:06:53.915Z,4.90
2019-01-21T13:09:33.084Z,4.90
2019-01-21T13:12:14.919Z,4.90
2019-01-21T13:15:07.887Z,5.00
2019-01-21T13:17:38.095Z,5.00
2019-01-21T13:20:14.031Z,5.00
2019-01-21T13:22:43.888Z,5.00
2019-01-21T13:25:19.984Z,5.00
2019-01-21T13:28:01.917Z,5.10
2019-01-21T13:31:00.847Z,5.10
2019-01-21T13:33:30.706Z,5.20
2019-01-21T13:36:03.401Z,5.20
2019-01-21T13:38:36.509Z,5.20
2019-01-21T13:41:21.531Z,5.20
2019-01-21T13:43:57.504Z,5.20
2019-01-21T13:47:01.012Z,5.30
2019-01-21T13:49:33.891Z,5.20
2019-01-21T13:52:20.659Z,5.20
2019-01-21T13:55:03.116Z,5.30
2019-01-21T13:57:51.373Z,5.30
2019-01-21T14:00:30.023Z,5.20
2019-01-21T14:03:08.415Z,5.30
2019-01-21T14:05:53.145Z,5.30
2019-01-21T14:08:26.055Z,5.30
2019-01-21T14:10:58.904Z,5.30
2019-01-21T14:13:44.036Z,5.30
2019-01-21T14:16:23.167Z,5.30
2019-01-21T14:19:18.793Z,5.30
2019-01-21T14:22:04.147Z,5.30
2019-01-21T14:24:51.969Z,5.30
2019-01-21T14:27:22.181Z,5.30
2019-01-21T14:30:10.722Z,5.30
2019-01-21T14:32:40.571Z,5.30
2019-01-21T14:35:36.888Z,5.30
2019-01-21T14:38:06.994Z,5.40
2019-01-21T14:40:57.519Z,5.40
2019-01-21T14:43:44.317Z,5.40
2019-01-21T14:46:20.432Z,5.40
2019-01-21T14:48:55.800Z,5.40
2019-01-21T14:51:47.188Z,5.40
2019-01-21T14:54:19.817Z,5.40
2019-01-21T14:56:58.765Z,5.40
2019-01-21T14:59:34.742Z,5.30
2019-01-21T15:02:07.631Z,5.30
2019-01-21T15:04:52.950Z,5.30
2019-01-21T15:07:25.851Z,5.30
2019-01-21T15:10:27.993Z,5.30
2019-01-21T15:13:25.149Z,5.20
2019-01-21T15:15:55.055Z,5.20
2019-01-21T15:18:45.715Z,5.20
2019-01-21T15:21:33.983Z,5.20
2019-01-21T15:24:04.433Z,5.10
2019-01-21T15:26:37.113Z,5.10
2019-01-21T15:29:42.189Z,5.10
2019-01-21T15:32:18.144Z,5.00
2019-01-21T15:35:06.391Z,5.00
2019-01-21T15:37:39.153Z,5.00
2019-01-21T15:40:17.747Z,5.00
2019-01-21T15:43:10.623Z,5.00
2019-01-21T15:45:51.819Z,4.90
2019-01-21T15:48:21.428Z,4.90
2019-01-21T15:50:54.771Z,4.80
2019-01-21T15:53:30.651Z,4.70
2019-01-21T15:56:03.657Z,4.70
2019-01-21T15:59:07.620Z,4.70
2019-01-21T16:01:43.544Z,4.60
2019-01-21T16:04:19.987Z,4.50
2019-01-21T16:07:16.967Z,4.50
2019-01-21T16:09:49.885Z,4.40
2019-01-21T16:12:50.449Z,4.30
2019-01-21T16:15:44.127Z,4.20
2019-01-21T16:18:13.984Z,4.10
2019-01-21T16:21:01.955Z,4.00
2019-01-21T16:23:41.072Z,3.90
2019-01-21T16:26:07.217Z,3.80
2019-01-21T16:28:43.559Z,3.70
2019-01-21T16:31:16.420Z,3.60
2019-01-21T16:34:03.291Z,3.60
2019-01-21T16:36:38.897Z,3.50
2019-01-21T16:39:08.772Z,3.40
2019-01-21T16:41:57.258Z,3.30
2019-01-21T16:44:23.512Z,3.20
2019-01-21T16:46:49.559Z,3.20
2019-01-21T16:49:15.939Z,3.00
2019-01-21T16:51:42.327Z,3.00
2019-01-21T16:54:08.366Z,2.90
2019-01-21T16:56:34.677Z,2.90
2019-01-21T16:59:00.742Z,2.80
2019-01-21T17:01:27.132Z,2.70
2019-01-21T17:03:53.196Z,2.70
2019-01-21T17:06:19.248Z,2.60
2019-01-21T17:08:45.282Z,2.60
2019-01-21T17:11:11.337Z,2.60
2019-01-21T17:13:37.397Z,2.50
2019-01-21T17:16:03.561Z,2.60
2019-01-21T17:18:29.622Z,2.50
2019-01-21T17:20:55.665Z,2.50
2019-01-21T17:23:21.728Z,2.50
2019-01-21T17:25:47.783Z,2.50
2019-01-21T17:28:13.854Z,2.40
2019-01-21T17:30:39.888Z,2.40
2019-01-21T17:33:06.028Z,2.40
2019-01-21T17:35:32.087Z,2.40
2019-01-21T17:37:58.123Z,2.40
2019-01-21T17:40:24.175Z,2.40
2019-01-21T17:42:50.223Z,2.40
2019-01-21T17:45:17.469Z,2.40
2019-01-21T17:47:43.632Z,2.30
2019-01-21T17:50:12.175Z,2.30
2019-01-21T17:52:38.311Z,2.30
2019-01-21T17:55:04.968Z,2.30
2019-01-21T17:57:31.011Z,2.30
2019-01-21T17:59:57.057Z,2.30
2019-01-21T18:02:23.124Z,2.20
2019-01-21T18:04:49.168Z,2.20
2019-01-21T18:07:15.213Z,2.20
2019-01-21T18:09:41.380Z,2.20
2019-01-21T18:12:07.519Z,2.20
2019-01-21T18:14:33.571Z,2.10
2019-01-21T18:16:59.723Z,2.10
2019-01-21T18:19:25.767Z,2.10
2019-01-21T18:21:51.804Z,2.10
2019-01-21T18:24:17.867Z,2.10
2019-01-21T18:26:43.923Z,2.00
2019-01-21T18:29:09.968Z,2.00
2019-01-21T18:31:36.042Z,2.00
2019-01-21T18:34:02.083Z,2.00
2019-01-21T18:36:28.323Z,1.90
2019-01-21T18:38:54.387Z,1.90
2019-01-21T18:41:20.442Z,1.90
2019-01-21T18:43:46.607Z,1.90
2019-01-21T18:46:12.980Z,1.90
2019-01-21T18:48:39.028Z,1.80
2019-01-21T18:51:05.067Z,1.80
2019-01-21T18:53:31.135Z,1.80
2019-01-21T18:55:57.171Z,1.70
2019-01-21T18:58:23.220Z,1.70
2019-01-21T19:00:49.284Z,1.70
2019-01-21T19:03:15.369Z,1.70
2019-01-21T19:05:41.606Z,1.70
2019-01-21T19:08:07.724Z,1.70
2019-01-21T19:10:33.779Z,1.70
2019-01-21T19:12:59.833Z,1.70
2019-01-21T19:15:28.203Z,1.70
2019-01-21T19:17:54.254Z,1.70
2019-01-21T19:20:20.403Z,1.70
2019-01-21T19:22:46.447Z,1.70
2019-01-21T19:25:12.835Z,1.70
2019-01-21T19:27:38.871Z,1.70
2019-01-21T19:30:22.480Z,1.60
2019-01-21T19:32:48.530Z,1.60
2019-01-21T19:35:17.377Z,1.60
2019-01-21T19:37:43.527Z,1.60
2019-01-21T19:40:13.274Z,1.60
2019-01-21T19:42:39.363Z,1.50
2019-01-21T19:45:07.319Z,1.50
2019-01-21T19:47:33.388Z,1.40
2019-01-21T19:49:59.456Z,1.40
2019-01-21T19:52:25.514Z,1.40
2019-01-21T19:54:51.544Z,1.40
2019-01-21T19:57:17.893Z,1.40
2019-01-21T19:59:43.995Z,1.30
2019-01-21T20:02:10.048Z,1.30
2019-01-21T20:04:36.103Z,1.30
2019-01-21T20:07:02.152Z,1.30
2019-01-21T20:09:28.193Z,1.30
2019-01-21T20:11:54.257Z,1.30
2019-01-21T20:14:20.316Z,1.30
2019-01-21T20:16:46.351Z,1.30
2019-01-21T20:19:12.460Z,1.30
2019-01-21T20:21:38.512Z,1.30
2019-01-21T20:24:04.568Z,1.30
2019-01-21T20:26:30.619Z,1.30
2019-01-21T20:28:56.652Z,1.30
2019-01-21T20:31:23.024Z,1.20
2019-01-21T20:33:52.248Z,1.20
2019-01-21T20:36:17.014Z,1.20
2019-01-21T20:38:43.179Z,1.20
2019-01-21T20:41:09.227Z,1.20
2019-01-21T20:43:35.263Z,1.10
2019-01-21T20:46:01.317Z,1.10
2019-01-21T20:48:27.364Z,1.10
2019-01-21T20:50:54.057Z,1.10
2019-01-21T20:53:20.906Z,1.10
2019-01-21T20:55:47.046Z,1.00
2019-01-21T20:58:13.095Z,1.00
2019-01-21T21:00:39.183Z,1.00
2019-01-21T21:03:08.090Z,1.00
2019-01-21T21:05:35.235Z,1.00
2019-01-21T21:08:02.259Z,1.00
2019-01-21T21:10:30.339Z,1.00
2019-01-21T21:12:56.741Z,0.90
2019-01-21T21:15:28.424Z,0.90
2019-01-21T21:17:54.461Z,0.90
2019-01-21T21:20:20.612Z,0.90
2019-01-21T21:22:46.668Z,0.90
2019-01-21T21:25:15.548Z,0.80
2019-01-21T21:27:41.900Z,0.90
2019-01-21T21:30:16.905Z,0.80
2019-01-21T21:32:43.064Z,0.80
2019-01-21T21:35:09.331Z,0.80
2019-01-21T21:37:35.775Z,0.80
2019-01-21T21:40:05.225Z,0.80
2019-01-21T21:42:31.283Z,0.80
2019-01-21T21:44:57.675Z,0.80
2019-01-21T21:47:23.717Z,0.70
2019-01-21T21:49:49.780Z,0.70
2019-01-21T21:52:15.938Z,0.70
2019-01-21T21:54:42.299Z,0.70
2019-01-21T21:57:08.343Z,0.70
2019-01-21T21:59:34.507Z,0.70
2019-01-21T22:02:00.545Z,0.70
2019-01-21T22:04:26.992Z,0.60
2019-01-21T22:06:53.324Z,0.60
2019-01-21T22:09:19.651Z,0.60
2019-01-21T22:11:45.695Z,0.60
2019-01-21T22:14:11.755Z,0.60
2019-01-21T22:16:37.815Z,0.60
2019-01-21T22:19:03.851Z,0.50
2019-01-21T22:21:29.919Z,0.50
2019-01-21T22:23:55.975Z,0.50
2019-01-21T22:26:22.533Z,0.40
2019-01-21T22:28:48.695Z,0.40
2019-01-21T22:31:14.755Z,0.40
2019-01-21T22:33:40.806Z,0.30
2019-01-21T22:36:06.844Z,0.40
2019-01-21T22:38:32.900Z,0.20
2019-01-21T22:40:59.063Z,0.20
2019-01-21T22:43:25.507Z,0.10
2019-01-21T22:45:51.556Z,0.10
2019-01-21T22:48:17.728Z,0.10
2019-01-21T22:50:43.767Z,0.00
2019-01-21T22:53:09.820Z,0.00
2019-01-21T22:55:35.981Z,-0.10
2019-01-21T22:58:02.132Z,-0.10
2019-01-21T23:00:36.920Z,-0.10
2019-01-21T23:03:03.852Z,-0.20
2019-01-21T23:05:30.004Z,-0.20
2019-01-21T23:07:56.177Z,-0.30
2019-01-21T23:10:22.227Z,-0.30
2019-01-21T23:12:48.684Z,-0.30
2019-01-21T23:15:14.748Z,-0.40
2019-01-21T23:17:40.787Z,-0.40
2019-01-21T23:20:09.149Z,-0.40
2019-01-21T23:22:35.296Z,-0.40
2019-01-21T23:25:01.336Z,-0.50
2019-01-21T23:27:27.391Z,-0.50
2019-01-21T23:29:53.840Z,-0.50
2019-01-21T23:32:19.896Z,-0.50
2019-01-21T23:34:45.944Z,-0.50
2019-01-21T23:37:12.003Z,-0.60
2019-01-21T23:39:38.409Z,-0.60
2019-01-21T23:42:04.561Z,-0.60
2019-01-21T23:44:30.944Z,-0.60
2019-01-21T23:46:57.683Z,-0.60
2019-01-21T23:49:23.748Z,-0.60
2019-01-21T23:51:49.892Z,-0.60
2019-01-21T23:54:15.956Z,-0.60
2019-01-21T23:56:42.092Z,-0.60
2019-01-21T23:59:08.132Z,-0.60
